Long Hua — VRFR5 — position and weather

sailwx.info

Track history (hours):
 
Tides and Currents Weather Stations Pressure Air Temp Water Temp Dewpoint Dewpoint Depression Visibility Wind Speed Wind Dir Waves Ship Positions

Long Hua

Last reported at 2016-Dec-08 04:22 UTC. Time now 2016-Dec-10 03:11 UTC.
Position N 25°07' E 119°26'.

Length 180 m; draft 9.4 m.

Type: Cargo ship. MMSI: 477622800.

Date/timePositionNaut miles runAvg speedWind from/ knotsBaromVisibWave heightAir tempDewpointWater temp
2016-Dec-08 04:22N 25°07' E 119°26'0 0.0
2016-Dec-08 03:21N 25°07' E 119°26'0 0.0
2016-Dec-08 02:33N 25°07' E 119°26'0 0.1
2016-Dec-08 01:31N 25°07' E 119°26'0 0.0
2016-Dec-08 00:32N 25°07' E 119°26'0 0.0
2016-Dec-07 23:14N 25°07' E 119°26'0 0.0
2016-Dec-07 18:04N 25°07' E 119°26'0 0.0
2016-Dec-07 14:12N 25°07' E 119°26'0 0.0
2016-Dec-07 13:32N 25°07' E 119°26'0 0.0
2016-Dec-07 11:11N 25°07' E 119°26'0 0.0
2016-Dec-07 04:30N 25°07' E 119°26'0 0.0
2016-Dec-07 02:30N 25°07' E 119°26'0 0.1
2016-Dec-07 01:24N 25°07' E 119°26'0 0.0
2016-Dec-07 00:28N 25°07' E 119°26'0 0.0
2016-Dec-06 23:33N 25°07' E 119°26'0 0.0
2016-Dec-06 22:32N 25°07' E 119°26'0 0.0
2016-Dec-06 21:23N 25°07' E 119°26'0 0.0
2016-Dec-06 20:33N 25°07' E 119°26'0 0.0
2016-Dec-06 13:25N 25°07' E 119°26'0 0.0
2016-Dec-06 12:33N 25°07' E 119°26'0 0.0
2016-Dec-06 11:27N 25°07' E 119°26'0 0.0
2016-Dec-06 01:15N 25°07' E 119°26'0 0.0
2016-Dec-06 00:32N 25°07' E 119°26'0 0.1
2016-Dec-05 23:33N 25°07' E 119°26'0 0.0
2016-Dec-05 22:31N 25°07' E 119°26'0 0.1
2016-Dec-05 21:28N 25°07' E 119°26'0 0.1
2016-Dec-05 20:28N 25°07' E 119°26'0 0.0
2016-Dec-05 19:30N 25°07' E 119°26'0 0.0
2016-Dec-05 15:28N 25°07' E 119°26'0 0.0
2016-Dec-05 14:31N 25°07' E 119°26'0 0.1
2016-Dec-05 13:15N 25°07' E 119°26'0 0.0
2016-Dec-05 11:08N 25°07' E 119°26'0 0.0
2016-Dec-05 10:30N 25°07' E 119°26'0 0.1
2016-Dec-05 09:31N 25°07' E 119°26'0 0.0
2016-Dec-04 08:13N 25°07' E 119°26'0 0.0
2016-Dec-03 17:19N 25°07' E 119°26'57 2.1
2016-Dec-02 14:20N 24°29' E 118°40'16 8.7
2016-Dec-02 12:32N 24°20' E 118°25'9 9.5
2016-Dec-02 11:34N 24°20' E 118°15'9 9.3
2016-Dec-02 10:34N 24°24' E 118°06'8 7.6
2016-Dec-02 09:33N 24°32' E 118°05'0 0.5
2016-Dec-02 08:33N 24°32' E 118°05'0 0.0
2016-Dec-02 07:29N 24°32' E 118°05'0 0.0
2016-Dec-02 05:29N 24°32' E 118°05'0 0.0
2016-Dec-02 04:29N 24°32' E 118°05'0 0.0
2016-Dec-02 03:29N 24°32' E 118°05'0 0.0
2016-Dec-02 02:17N 24°32' E 118°05'0 0.0
2016-Dec-02 01:30N 24°32' E 118°05'0 0.0
2016-Dec-02 00:23N 24°32' E 118°05'0 0.0
2016-Dec-01 23:29N 24°32' E 118°05'0 0.0
2016-Dec-01 22:29N 24°32' E 118°05'0 0.0
2016-Dec-01 21:23N 24°32' E 118°05'0 0.0
2016-Dec-01 20:29N 24°32' E 118°05'0 0.0
2016-Dec-01 19:23N 24°32' E 118°05'0 0.0
2016-Dec-01 18:11N 24°32' E 118°05'0 0.0
2016-Dec-01 17:30N 24°32' E 118°05'0 0.0
2016-Dec-01 16:29N 24°32' E 118°05'0 0.0
2016-Dec-01 15:29N 24°32' E 118°05'0 0.0
2016-Dec-01 14:23N 24°32' E 118°05'0 0.0
2016-Dec-01 13:23N 24°32' E 118°05'0 0.0
2016-Dec-01 12:29N 24°32' E 118°05'0 0.0
2016-Dec-01 11:29N 24°32' E 118°05'0 0.0
2016-Dec-01 10:33N 24°32' E 118°05'0 0.0
2016-Dec-01 09:31N 24°32' E 118°05'0 0.0
2016-Dec-01 08:05N 24°32' E 118°05'0 0.0
2016-Dec-01 07:29N 24°32' E 118°05'0 0.0
2016-Dec-01 06:29N 24°32' E 118°05'0 0.0
2016-Dec-01 05:33N 24°32' E 118°05'0 0.0
2016-Dec-01 04:24N 24°32' E 118°05'0 0.0
2016-Dec-01 03:29N 24°32' E 118°05'0 0.0
2016-Dec-01 02:29N 24°32' E 118°05'0 0.0
2016-Dec-01 01:11N 24°32' E 118°05'0 0.0
2016-Dec-01 00:23N 24°32' E 118°05'0 0.0
2016-Nov-30 23:17N 24°32' E 118°05'0 0.0
2016-Nov-30 22:29N 24°32' E 118°05'0 0.0
2016-Nov-30 21:29N 24°32' E 118°05'0 0.0
2016-Nov-30 20:23N 24°32' E 118°05'0 0.0
2016-Nov-30 19:23N 24°32' E 118°05'0 0.0
2016-Nov-30 18:05N 24°32' E 118°05'0 0.0
2016-Nov-30 17:29N 24°32' E 118°05'0 0.0
2016-Nov-30 16:23N 24°32' E 118°05'0 0.0
2016-Nov-30 15:29N 24°32' E 118°05'0 0.0
2016-Nov-30 13:23N 24°32' E 118°05'0 0.0
2016-Nov-30 12:29N 24°32' E 118°05'0 0.0
2016-Nov-30 11:29N 24°32' E 118°05'0 0.0
2016-Nov-30 10:17N 24°32' E 118°05'0 0.0
2016-Nov-30 09:17N 24°32' E 118°05'0 0.0
2016-Nov-30 08:29N 24°32' E 118°05'0 0.0
2016-Nov-30 07:32N 24°32' E 118°05'0 0.0
2016-Nov-30 06:11N 24°32' E 118°05'0 0.0
2016-Nov-30 05:23N 24°32' E 118°05'1 1.7
2016-Nov-30 04:32N 24°31' E 118°04'1 1.0
2016-Nov-30 03:33N 24°30' E 118°04'9 9.2
2016-Nov-30 02:33N 24°22' E 118°09'1211.6
2016-Nov-30 01:31N 24°20' E 118°22'1211.7
2016-Nov-30 00:29N 24°22' E 118°35'  
Track history (hours):
 
Tides and Currents Weather Stations Pressure Air Temp Water Temp Dewpoint Dewpoint Depression Visibility Wind Speed Wind Dir Waves Ship Positions

Long Hua

Last reported at 2016-Dec-08 04:22 UTC. Time now 2016-Dec-10 03:11 UTC.
Position N 25°07' E 119°26'.

Length 180 m; draft 9.4 m.

Type: Cargo ship. MMSI: 477622800.

Date/timePositionNaut miles runAvg speedWind from/ knotsBaromVisibWave heightAir tempDewpointWater temp
2016-Dec-08 04:22N 25°07' E 119°26'0 0.0
2016-Dec-08 03:21N 25°07' E 119°26'0 0.0
2016-Dec-08 02:33N 25°07' E 119°26'0 0.1
2016-Dec-08 01:31N 25°07' E 119°26'0 0.0
2016-Dec-08 00:32N 25°07' E 119°26'0 0.0
2016-Dec-07 23:14N 25°07' E 119°26'0 0.0
2016-Dec-07 18:04N 25°07' E 119°26'0 0.0
2016-Dec-07 14:12N 25°07' E 119°26'0 0.0
2016-Dec-07 13:32N 25°07' E 119°26'0 0.0
2016-Dec-07 11:11N 25°07' E 119°26'0 0.0
2016-Dec-07 04:30N 25°07' E 119°26'0 0.0
2016-Dec-07 02:30N 25°07' E 119°26'0 0.1
2016-Dec-07 01:24N 25°07' E 119°26'0 0.0
2016-Dec-07 00:28N 25°07' E 119°26'0 0.0
2016-Dec-06 23:33N 25°07' E 119°26'0 0.0
2016-Dec-06 22:32N 25°07' E 119°26'0 0.0
2016-Dec-06 21:23N 25°07' E 119°26'0 0.0
2016-Dec-06 20:33N 25°07' E 119°26'0 0.0
2016-Dec-06 13:25N 25°07' E 119°26'0 0.0
2016-Dec-06 12:33N 25°07' E 119°26'0 0.0
2016-Dec-06 11:27N 25°07' E 119°26'0 0.0
2016-Dec-06 01:15N 25°07' E 119°26'0 0.0
2016-Dec-06 00:32N 25°07' E 119°26'0 0.1
2016-Dec-05 23:33N 25°07' E 119°26'0 0.0
2016-Dec-05 22:31N 25°07' E 119°26'0 0.1
2016-Dec-05 21:28N 25°07' E 119°26'0 0.1
2016-Dec-05 20:28N 25°07' E 119°26'0 0.0
2016-Dec-05 19:30N 25°07' E 119°26'0 0.0
2016-Dec-05 15:28N 25°07' E 119°26'0 0.0
2016-Dec-05 14:31N 25°07' E 119°26'0 0.1
2016-Dec-05 13:15N 25°07' E 119°26'0 0.0
2016-Dec-05 11:08N 25°07' E 119°26'0 0.0
2016-Dec-05 10:30N 25°07' E 119°26'0 0.1
2016-Dec-05 09:31N 25°07' E 119°26'0 0.0
2016-Dec-04 08:13N 25°07' E 119°26'0 0.0
2016-Dec-03 17:19N 25°07' E 119°26'57 2.1
2016-Dec-02 14:20N 24°29' E 118°40'16 8.7
2016-Dec-02 12:32N 24°20' E 118°25'9 9.5
2016-Dec-02 11:34N 24°20' E 118°15'9 9.3
2016-Dec-02 10:34N 24°24' E 118°06'8 7.6
2016-Dec-02 09:33N 24°32' E 118°05'0 0.5
2016-Dec-02 08:33N 24°32' E 118°05'0 0.0
2016-Dec-02 07:29N 24°32' E 118°05'0 0.0
2016-Dec-02 05:29N 24°32' E 118°05'0 0.0
2016-Dec-02 04:29N 24°32' E 118°05'0 0.0
2016-Dec-02 03:29N 24°32' E 118°05'0 0.0
2016-Dec-02 02:17N 24°32' E 118°05'0 0.0
2016-Dec-02 01:30N 24°32' E 118°05'0 0.0
2016-Dec-02 00:23N 24°32' E 118°05'0 0.0
2016-Dec-01 23:29N 24°32' E 118°05'0 0.0
2016-Dec-01 22:29N 24°32' E 118°05'0 0.0
2016-Dec-01 21:23N 24°32' E 118°05'0 0.0
2016-Dec-01 20:29N 24°32' E 118°05'0 0.0
2016-Dec-01 19:23N 24°32' E 118°05'0 0.0
2016-Dec-01 18:11N 24°32' E 118°05'0 0.0
2016-Dec-01 17:30N 24°32' E 118°05'0 0.0
2016-Dec-01 16:29N 24°32' E 118°05'0 0.0
2016-Dec-01 15:29N 24°32' E 118°05'0 0.0
2016-Dec-01 14:23N 24°32' E 118°05'0 0.0
2016-Dec-01 13:23N 24°32' E 118°05'0 0.0
2016-Dec-01 12:29N 24°32' E 118°05'0 0.0
2016-Dec-01 11:29N 24°32' E 118°05'0 0.0
2016-Dec-01 10:33N 24°32' E 118°05'0 0.0
2016-Dec-01 09:31N 24°32' E 118°05'0 0.0
2016-Dec-01 08:05N 24°32' E 118°05'0 0.0
2016-Dec-01 07:29N 24°32' E 118°05'0 0.0
2016-Dec-01 06:29N 24°32' E 118°05'0 0.0
2016-Dec-01 05:33N 24°32' E 118°05'0 0.0
2016-Dec-01 04:24N 24°32' E 118°05'0 0.0
2016-Dec-01 03:29N 24°32' E 118°05'0 0.0
2016-Dec-01 02:29N 24°32' E 118°05'0 0.0
2016-Dec-01 01:11N 24°32' E 118°05'0 0.0
2016-Dec-01 00:23N 24°32' E 118°05'0 0.0
2016-Nov-30 23:17N 24°32' E 118°05'0 0.0
2016-Nov-30 22:29N 24°32' E 118°05'0 0.0
2016-Nov-30 21:29N 24°32' E 118°05'0 0.0
2016-Nov-30 20:23N 24°32' E 118°05'0 0.0
2016-Nov-30 19:23N 24°32' E 118°05'0 0.0
2016-Nov-30 18:05N 24°32' E 118°05'0 0.0
2016-Nov-30 17:29N 24°32' E 118°05'0 0.0
2016-Nov-30 16:23N 24°32' E 118°05'0 0.0
2016-Nov-30 15:29N 24°32' E 118°05'0 0.0
2016-Nov-30 13:23N 24°32' E 118°05'0 0.0
2016-Nov-30 12:29N 24°32' E 118°05'0 0.0
2016-Nov-30 11:29N 24°32' E 118°05'0 0.0
2016-Nov-30 10:17N 24°32' E 118°05'0 0.0
2016-Nov-30 09:17N 24°32' E 118°05'0 0.0
2016-Nov-30 08:29N 24°32' E 118°05'0 0.0
2016-Nov-30 07:32N 24°32' E 118°05'0 0.0
2016-Nov-30 06:11N 24°32' E 118°05'0 0.0
2016-Nov-30 05:23N 24°32' E 118°05'1 1.7
2016-Nov-30 04:32N 24°31' E 118°04'1 1.0
2016-Nov-30 03:33N 24°30' E 118°04'9 9.2
2016-Nov-30 02:33N 24°22' E 118°09'1211.6
2016-Nov-30 01:31N 24°20' E 118°22'1211.7
2016-Nov-30 00:29N 24°22' E 118°35'  

Dump ship's entire track history